Tifone CHABA 2004: traiettoria, intensità e storia
5 set 2004, 12:00:00
17 ago 2004, 00:00:00 – 5 set 2004, 12:00:00
Traiettoria storica
Segui l’evoluzione e il movimento di Tifone CHABA nel 2004, con il percorso completo registrato, venti massimi sostenuti di 155 nodi, pressione centrale minima e cronologia dettagliata.
| Data | Ora | Tipo | Ventokm/h | PressionehPa |
|---|---|---|---|---|
| 05 set | 12:00 | EXCiclone extratropicale | -- | 1006 |
| 05 set | 09:00 | EXCiclone extratropicale | -- | 1004 |
| 05 set | 06:00 | EXCiclone extratropicale | -- | 1002 |
| 05 set | 03:00 | EXCiclone extratropicale | -- | 1001 |
| 05 set | 00:00 | EXCiclone extratropicale | -- | 1000 |
| 04 set | 21:00 | EXCiclone extratropicale | -- | 999 |
| 04 set | 18:00 | EXCiclone extratropicale | -- | 998 |
| 04 set | 15:00 | EXCiclone extratropicale | -- | 998 |
| 04 set | 12:00 | EXCiclone extratropicale | -- | 998 |
| 04 set | 09:00 | EXCiclone extratropicale | -- | 997 |
| 04 set | 06:00 | EXCiclone extratropicale | -- | 996 |
| 04 set | 03:00 | EXCiclone extratropicale | -- | 995 |
| 04 set | 00:00 | EXCiclone extratropicale | -- | 994 |
| 03 set | 21:00 | EXCiclone extratropicale | -- | 994 |
| 03 set | 18:00 | EXCiclone extratropicale | -- | 994 |
| 03 set | 15:00 | EXCiclone extratropicale | -- | 993 |
| 03 set | 12:00 | EXCiclone extratropicale | -- | 992 |
| 03 set | 09:00 | EXCiclone extratropicale | -- | 991 |
| 03 set | 06:00 | EXCiclone extratropicale | -- | 990 |
| 03 set | 03:00 | EXCiclone extratropicale | -- | 990 |
| 03 set | 00:00 | EXCiclone extratropicale | -- | 990 |
| 02 set | 21:00 | EXCiclone extratropicale | -- | 990 |
| 02 set | 18:00 | EXCiclone extratropicale | -- | 990 |
| 02 set | 15:00 | EXCiclone extratropicale | -- | 990 |
| 02 set | 12:00 | EXCiclone extratropicale | -- | 990 |
| 02 set | 09:00 | EXCiclone extratropicale | -- | 989 |
| 02 set | 06:00 | EXCiclone extratropicale | -- | 988 |
| 02 set | 03:00 | EXCiclone extratropicale | -- | 987 |
| 02 set | 00:00 | EXCiclone extratropicale | -- | 986 |
| 01 set | 21:00 | EXCiclone extratropicale | -- | 985 |
| 01 set | 18:00 | EXCiclone extratropicale | -- | 984 |
| 01 set | 15:00 | EXCiclone extratropicale | -- | 984 |
| 01 set | 12:00 | EXCiclone extratropicale | -- | 984 |
| 01 set | 09:00 | EXCiclone extratropicale | -- | 980 |
| 01 set | 06:00 | EXCiclone extratropicale | -- | 976 |
| 01 set | 03:00 | EXCiclone extratropicale | -- | 978 |
| 01 set | 00:00 | EXCiclone extratropicale | -- | 980 |
| 31 ago | 21:00 | EXCiclone extratropicale | -- | 980 |
| 31 ago | 18:00 | EXCiclone extratropicale | -- | 980 |
| 31 ago | 15:00 | EXCiclone extratropicale | -- | 978 |
| 31 ago | 12:00 | EXCiclone extratropicale | 75 | 994 |
| 31 ago | 09:00 | EXCiclone extratropicale | 85 | 991 |
| 31 ago | 06:00 | EXCiclone extratropicale | 95 | 987 |
| 31 ago | 03:00 | STSForte tempesta tropicale | 100 | 986 |
| 31 ago | 00:00 | STSForte tempesta tropicale | 100 | 984 |
| 30 ago | 21:00 | STSForte tempesta tropicale | 115 | 978 |
| 30 ago | 18:00 | STSForte tempesta tropicale | 130 | 972 |
| 30 ago | 15:00 | STSForte tempesta tropicale | 135 | 970 |
| 30 ago | 12:00 | STSForte tempesta tropicale | 140 | 967 |
| 30 ago | 09:00 | TTifone | 150 | 963 |
| 30 ago | 08:00 | TTifone | 150 | 961 |
| 30 ago | 06:00 | TTifone | 155 | 958 |
| 30 ago | 03:00 | TTifone | 165 | 956 |
| 30 ago | 00:00 | TTifone | 165 | 954 |
| 29 ago | 21:00 | TTifone | 170 | 952 |
| 29 ago | 18:00 | TTifone | 175 | 949 |
| 29 ago | 15:00 | TTifone | 175 | 949 |
| 29 ago | 12:00 | TTifone | 175 | 949 |
| 29 ago | 09:00 | STSuper tifone | 185 | 944 |
| 29 ago | 06:00 | STSuper tifone | 195 | 938 |
| 29 ago | 03:00 | STSuper tifone | 195 | 938 |
| 29 ago | 00:00 | STSuper tifone | 195 | 938 |
| 28 ago | 21:00 | STSuper tifone | 200 | 936 |
| 28 ago | 18:00 | STSuper tifone | 205 | 933 |
| 28 ago | 15:00 | STSuper tifone | 205 | 933 |
| 28 ago | 12:00 | STSuper tifone | 205 | 933 |
| 28 ago | 09:00 | STSuper tifone | 210 | 930 |
| 28 ago | 06:00 | STSuper tifone | 215 | 927 |
| 28 ago | 03:00 | STSuper tifone | 215 | 927 |
| 28 ago | 00:00 | STSuper tifone | 215 | 927 |
| 27 ago | 21:00 | STSuper tifone | 215 | 936 |
| 27 ago | 18:00 | STSuper tifone | 215 | 944 |
| 27 ago | 15:00 | STSuper tifone | 205 | 941 |
| 27 ago | 12:00 | STSuper tifone | 195 | 938 |
| 27 ago | 09:00 | STSuper tifone | 190 | 941 |
| 27 ago | 06:00 | STSuper tifone | 185 | 944 |
| 27 ago | 03:00 | STSuper tifone | 190 | 941 |
| 27 ago | 00:00 | STSuper tifone | 195 | 938 |
| 26 ago | 21:00 | STSuper tifone | 205 | 933 |
| 26 ago | 18:00 | STSuper tifone | 215 | 927 |
| 26 ago | 15:00 | STSuper tifone | 215 | 927 |
| 26 ago | 12:00 | STSuper tifone | 215 | 927 |
| 26 ago | 09:00 | STSuper tifone | 220 | 922 |
| 26 ago | 06:00 | STSuper tifone | 230 | 916 |
| 26 ago | 03:00 | STSuper tifone | 235 | 913 |
| 26 ago | 00:00 | STSuper tifone | 240 | 910 |
| 25 ago | 21:00 | STSuper tifone | 255 | 901 |
| 25 ago | 18:00 | STSuper tifone | 270 | 892 |
| 25 ago | 15:00 | STSuper tifone | 270 | 892 |
| 25 ago | 12:00 | STSuper tifone | 270 | 892 |
| 25 ago | 09:00 | STSuper tifone | 265 | 895 |
| 25 ago | 06:00 | STSuper tifone | 260 | 898 |
| 25 ago | 03:00 | STSuper tifone | 270 | 892 |
| 25 ago | 00:00 | STSuper tifone | 280 | 885 |
| 24 ago | 21:00 | STSuper tifone | 285 | 882 |
| 24 ago | 18:00 | STSuper tifone | 285 | 879 |
| 24 ago | 15:00 | STSuper tifone | 280 | 886 |
| 24 ago | 12:00 | STSuper tifone | 270 | 892 |
| 24 ago | 09:00 | STSuper tifone | 275 | 889 |
| 24 ago | 06:00 | STSuper tifone | 280 | 885 |
| 24 ago | 03:00 | STSuper tifone | 285 | 882 |
| 24 ago | 00:00 | STSuper tifone | 285 | 879 |
| 23 ago | 21:00 | STSuper tifone | 285 | 879 |
| 23 ago | 18:00 | STSuper tifone | 285 | 879 |
| 23 ago | 15:00 | STSuper tifone | 285 | 879 |
| 23 ago | 12:00 | STSuper tifone | 285 | 879 |
| 23 ago | 09:00 | STSuper tifone | 285 | 879 |
| 23 ago | 06:00 | STSuper tifone | 285 | 879 |
| 23 ago | 03:00 | STSuper tifone | 285 | 879 |
| 23 ago | 00:00 | STSuper tifone | 285 | 879 |
| 22 ago | 21:00 | STSuper tifone | 280 | 886 |
| 22 ago | 18:00 | STSuper tifone | 270 | 892 |
| 22 ago | 15:00 | STSuper tifone | 250 | 904 |
| 22 ago | 12:00 | STSuper tifone | 230 | 916 |
| 22 ago | 09:00 | STSuper tifone | 220 | 922 |
| 22 ago | 06:00 | STSuper tifone | 215 | 927 |
| 22 ago | 03:00 | STSuper tifone | 195 | 938 |
| 22 ago | 00:00 | TTifone | 175 | 949 |
| 21 ago | 21:00 | TTifone | 170 | 952 |
| 21 ago | 18:00 | TTifone | 165 | 954 |
| 21 ago | 15:00 | TTifone | 155 | 961 |
| 21 ago | 12:00 | STSForte tempesta tropicale | 140 | 967 |
| 21 ago | 09:00 | TTifone | 135 | 970 |
| 21 ago | 06:00 | STSForte tempesta tropicale | 130 | 972 |
| 21 ago | 03:00 | TTifone | 125 | 974 |
| 21 ago | 00:00 | STSForte tempesta tropicale | 120 | 976 |
| 20 ago | 21:00 | TTifone | 120 | 976 |
| 20 ago | 18:00 | STSForte tempesta tropicale | 120 | 976 |
| 20 ago | 15:00 | TTifone | 120 | 976 |
| 20 ago | 12:00 | STSForte tempesta tropicale | 120 | 976 |
| 20 ago | 09:00 | TSTempesta tropicale | 115 | 978 |
| 20 ago | 06:00 | STSForte tempesta tropicale | 110 | 980 |
| 20 ago | 03:00 | TSTempesta tropicale | 110 | 980 |
| 20 ago | 00:00 | STSForte tempesta tropicale | 110 | 980 |
| 19 ago | 21:00 | TSTempesta tropicale | 105 | 982 |
| 19 ago | 18:00 | TSTempesta tropicale | 100 | 984 |
| 19 ago | 15:00 | TSTempesta tropicale | 95 | 988 |
| 19 ago | 12:00 | TSTempesta tropicale | 85 | 991 |
| 19 ago | 09:00 | TSTempesta tropicale | 80 | 993 |
| 19 ago | 06:00 | TDDepressione tropicale | 75 | 994 |
| 19 ago | 03:00 | TDDepressione tropicale | 65 | 997 |
| 19 ago | 00:00 | TDDepressione tropicale | 55 | 1000 |
| 18 ago | 21:00 | TDDepressione tropicale | 55 | 1000 |
| 18 ago | 18:00 | TDDepressione tropicale | 55 | 1000 |
| 18 ago | 15:00 | DBPerturbazione tropicale | 50 | 1001 |
| 18 ago | 12:00 | TDDepressione tropicale | 45 | 1002 |
| 18 ago | 09:00 | TDDepressione tropicale | 45 | 1002 |
| 18 ago | 06:00 | TDDepressione tropicale | 45 | 1002 |
| 18 ago | 03:00 | DBPerturbazione tropicale | 45 | 1003 |
| 18 ago | 00:00 | DBPerturbazione tropicale | 35 | 1004 |
| 17 ago | 21:00 | DBPerturbazione tropicale | 35 | 1004 |
| 17 ago | 18:00 | DBPerturbazione tropicale | 35 | 1004 |
| 17 ago | 15:00 | DBPerturbazione tropicale | 35 | 1005 |
| 17 ago | 12:00 | DBPerturbazione tropicale | 30 | 1006 |
| 17 ago | 09:00 | DBPerturbazione tropicale | 30 | 1006 |
| 17 ago | 06:00 | DBPerturbazione tropicale | 30 | 1006 |
| 17 ago | 03:00 | DBPerturbazione tropicale | 30 | 1006 |
| 17 ago | 00:00 | DBPerturbazione tropicale | 30 | 1006 |
Evoluzione dell’evento
158 Posizioni registrateAnche questi strumenti potrebbero esserti utili
La posizione, l’estensione e lo stato di un evento possono essere aggiornati in momenti diversi a seconda della fonte. Per decisioni importanti, consulta gli enti ufficiali competenti.
I dati degli eventi provengono da NASA EONET e sono integrati con le registrazioni di frane di USGS FDSN. Le analisi e le previsioni delle tempeste possono utilizzare NOAA NHC o JTWC e, quando disponibili, gli archivi storici ATCF di UCAR/NCAR. Le immagini satellitari provengono da NASA Worldview/GIBS (GOES e Himawari) o da EUMETSAT Meteosat, in base alla copertura della mappa.
Fonti: NASA EONET · USGS · NOAA NHC · JTWC · UCAR/NCAR ATCF · NASA Worldview/GIBS · EUMETSAT Meteosat · OpenStreetMap contributors